createdAt,value
2022-10-17T00:00:55.841Z,13.61
2022-10-17T00:03:57.869Z,13.59
2022-10-17T00:07:00.570Z,13.56
2022-10-17T00:10:03.332Z,13.40
2022-10-17T00:13:06.477Z,13.23
2022-10-17T00:16:09.162Z,13.15
2022-10-17T00:19:11.329Z,13.00
2022-10-17T00:22:14.111Z,13.01
2022-10-17T00:25:16.519Z,13.04
2022-10-17T00:28:18.750Z,13.10
2022-10-17T00:31:23.419Z,13.14
2022-10-17T00:34:26.194Z,13.06
2022-10-17T00:37:28.517Z,12.96
2022-10-17T00:40:30.627Z,13.43
2022-10-17T00:43:51.197Z,13.47
2022-10-17T00:47:02.591Z,13.47
2022-10-17T00:50:07.072Z,13.31
2022-10-17T00:53:09.713Z,13.20
2022-10-17T00:56:15.802Z,13.22
2022-10-17T00:59:22.086Z,13.26
2022-10-17T01:02:24.295Z,13.24
2022-10-17T01:05:27.449Z,12.91
2022-10-17T01:08:30.654Z,13.02
2022-10-17T01:11:40.782Z,12.89
2022-10-17T01:15:02.379Z,12.95
2022-10-17T01:18:13.125Z,12.99
2022-10-17T01:21:48.361Z,12.92
2022-10-17T01:25:01.929Z,12.89
2022-10-17T01:32:30.792Z,13.15
2022-10-17T01:35:38.370Z,13.30
2022-10-17T01:38:49.065Z,13.20
2022-10-17T01:42:19.458Z,13.22
2022-10-17T01:45:25.798Z,13.32
2022-10-17T01:48:36.319Z,13.22
2022-10-17T01:51:43.540Z,13.29
2022-10-17T01:54:51.322Z,13.07
2022-10-17T01:57:58.039Z,12.97
2022-10-17T02:01:07.015Z,12.83
2022-10-17T02:04:11.466Z,12.84
2022-10-17T02:07:13.960Z,12.77
2022-10-17T02:10:26.157Z,12.76
2022-10-17T02:13:42.556Z,12.70
2022-10-17T02:17:00.301Z,12.76
2022-10-17T02:20:11.536Z,12.88
2022-10-17T02:23:30.643Z,12.91
2022-10-17T02:26:48.507Z,13.08
2022-10-17T02:30:01.244Z,13.06
2022-10-17T02:33:06.801Z,12.97
2022-10-17T02:36:17.979Z,13.06
2022-10-17T02:39:25.385Z,12.90
2022-10-17T02:42:30.330Z,12.91
2022-10-17T02:45:36.587Z,12.72
2022-10-17T02:48:48.571Z,12.49
2022-10-17T02:52:04.256Z,12.59
2022-10-17T02:55:18.093Z,12.46
2022-10-17T02:58:28.365Z,12.43
2022-10-17T03:01:31.315Z,12.52
2022-10-17T03:04:34.272Z,12.40
2022-10-17T03:07:39.438Z,12.48
2022-10-17T03:10:42.791Z,12.60
2022-10-17T03:13:47.608Z,12.87
2022-10-17T03:16:51.315Z,12.54
2022-10-17T03:19:54.640Z,12.61
2022-10-17T03:22:56.782Z,12.64
2022-10-17T03:25:58.875Z,12.64
2022-10-17T03:29:02.121Z,12.53
2022-10-17T03:32:05.479Z,12.62
2022-10-17T03:35:14.090Z,12.48
2022-10-17T03:38:19.331Z,12.40
2022-10-17T03:41:21.669Z,12.55
2022-10-17T03:44:24.029Z,12.22
2022-10-17T03:47:26.214Z,12.35
2022-10-17T03:50:28.531Z,12.42
2022-10-17T03:53:32.606Z,12.36
2022-10-17T03:56:34.720Z,12.37
2022-10-17T03:59:43.483Z,12.47
2022-10-17T04:02:50.209Z,12.54
2022-10-17T04:05:57.770Z,12.41
2022-10-17T04:09:00.146Z,12.40
2022-10-17T04:12:24.849Z,12.57
2022-10-17T04:15:27.364Z,12.36
2022-10-17T04:18:29.913Z,13.76
2022-10-17T04:21:32.219Z,15.94
2022-10-17T04:24:39.920Z,17.10
2022-10-17T04:27:49.525Z,17.74
2022-10-17T04:31:11.798Z,17.60
2022-10-17T04:34:34.552Z,17.85
2022-10-17T04:37:36.616Z,17.90
2022-10-17T04:40:45.070Z,17.68
2022-10-17T04:43:51.019Z,17.68
2022-10-17T04:46:56.039Z,17.62
2022-10-17T04:49:59.173Z,17.57
2022-10-17T04:53:01.936Z,17.57
2022-10-17T04:56:12.776Z,17.69
2022-10-17T04:59:15.210Z,17.67
2022-10-17T05:02:19.380Z,17.84
2022-10-17T05:05:22.302Z,17.82
2022-10-17T05:08:29.896Z,17.83
2022-10-17T05:11:32.656Z,16.88
2022-10-17T05:14:34.745Z,16.19
2022-10-17T05:17:37.017Z,15.55
2022-10-17T05:20:39.248Z,15.13
2022-10-17T05:23:42.075Z,14.95
2022-10-17T05:26:44.160Z,14.66
2022-10-17T05:29:47.510Z,14.42
2022-10-17T05:33:01.286Z,14.18
2022-10-17T05:36:03.728Z,13.93
2022-10-17T05:39:06.258Z,14.06
2022-10-17T05:42:09.857Z,14.03
2022-10-17T05:45:12.006Z,13.91
2022-10-17T05:48:14.423Z,13.76
2022-10-17T05:51:16.593Z,13.65
2022-10-17T05:54:18.953Z,13.65
2022-10-17T05:57:21.111Z,13.58
2022-10-17T06:00:23.387Z,13.61
2022-10-17T06:03:32.682Z,13.64
2022-10-17T06:06:40.363Z,13.65
2022-10-17T06:09:43.012Z,13.61
2022-10-17T06:12:46.286Z,14.26
2022-10-17T06:15:49.589Z,15.19
2022-10-17T06:18:51.773Z,15.81
2022-10-17T06:21:54.702Z,16.10
2022-10-17T06:24:58.503Z,16.44
2022-10-17T06:28:01.167Z,16.50
2022-10-17T06:31:11.661Z,16.97
2022-10-17T06:34:13.785Z,17.24
2022-10-17T06:37:16.418Z,17.77
2022-10-17T06:40:21.181Z,18.23
2022-10-17T06:43:27.866Z,18.65
2022-10-17T06:46:53.021Z,19.25
2022-10-17T06:49:56.530Z,19.61
2022-10-17T06:53:18.727Z,19.59
2022-10-17T06:56:52.861Z,19.74
2022-10-17T07:00:21.394Z,19.82
2022-10-17T07:03:27.073Z,19.66
2022-10-17T07:06:29.353Z,18.69
2022-10-17T07:09:35.874Z,17.69
2022-10-17T07:12:37.936Z,17.13
2022-10-17T07:15:40.102Z,16.90
2022-10-17T07:18:43.016Z,16.79
2022-10-17T07:21:45.222Z,16.74
2022-10-17T07:27:56.070Z,16.78
2022-10-17T07:31:07.127Z,16.69
2022-10-17T07:34:09.279Z,16.77
2022-10-17T07:37:12.047Z,16.75
2022-10-17T07:40:17.539Z,16.89
2022-10-17T07:43:19.754Z,16.88
2022-10-17T07:46:22.354Z,16.99
2022-10-17T07:49:25.142Z,16.88
2022-10-17T07:52:28.134Z,16.70
2022-10-17T07:55:31.259Z,16.69
2022-10-17T07:58:33.505Z,16.70
2022-10-17T08:01:35.687Z,16.70
2022-10-17T08:04:37.892Z,16.69
2022-10-17T08:07:41.481Z,16.67
2022-10-17T08:10:43.892Z,16.73
2022-10-17T08:13:46.010Z,16.68
2022-10-17T08:16:48.079Z,16.69
2022-10-17T08:19:50.165Z,16.70
2022-10-17T08:22:53.700Z,16.74
2022-10-17T08:25:59.966Z,16.49
2022-10-17T08:29:02.133Z,16.57
2022-10-17T08:32:07.649Z,16.73
2022-10-17T08:35:11.717Z,16.76
2022-10-17T08:38:14.654Z,16.70
2022-10-17T08:41:47.628Z,16.84
2022-10-17T08:45:15.919Z,16.92
2022-10-17T08:48:23.971Z,17.11
2022-10-17T08:51:32.644Z,17.29
2022-10-17T08:54:42.213Z,17.48
2022-10-17T08:57:44.718Z,17.70
2022-10-17T09:01:13.271Z,17.78
2022-10-17T09:04:44.536Z,18.00
2022-10-17T09:08:20.296Z,18.08
2022-10-17T09:11:45.474Z,18.09
2022-10-17T09:14:59.091Z,18.11
2022-10-17T09:18:13.452Z,18.08
2022-10-17T09:21:30.564Z,18.10
2022-10-17T09:24:42.483Z,18.14
2022-10-17T09:27:51.997Z,18.12
2022-10-17T09:31:13.278Z,18.10
2022-10-17T09:34:16.545Z,18.17
2022-10-17T09:37:19.929Z,18.34
2022-10-17T09:40:27.035Z,18.40
2022-10-17T09:43:30.443Z,18.37
2022-10-17T09:46:41.897Z,18.26
2022-10-17T09:49:47.084Z,18.28
2022-10-17T09:52:51.019Z,18.26
2022-10-17T09:56:03.193Z,18.31
2022-10-17T09:59:05.303Z,17.93
2022-10-17T10:02:13.262Z,17.81
2022-10-17T10:05:30.176Z,17.71
2022-10-17T10:08:38.031Z,17.69
2022-10-17T10:11:52.476Z,17.77
2022-10-17T10:14:55.547Z,17.77
2022-10-17T10:17:57.769Z,17.74
2022-10-17T10:21:10.487Z,17.61
2022-10-17T10:24:15.268Z,17.73
2022-10-17T10:27:18.867Z,17.96
2022-10-17T10:30:25.920Z,17.94
2022-10-17T10:33:30.717Z,18.06
2022-10-17T10:36:46.379Z,18.13
2022-10-17T10:39:54.806Z,18.15
2022-10-17T10:43:04.878Z,18.08
2022-10-17T10:46:37.008Z,18.15
2022-10-17T10:49:39.775Z,18.16
2022-10-17T10:53:02.728Z,18.07
2022-10-17T10:56:13.623Z,18.20
2022-10-17T10:59:42.868Z,18.13
2022-10-17T11:03:12.719Z,18.02
2022-10-17T11:06:25.262Z,18.04
2022-10-17T11:13:29.234Z,18.16
2022-10-17T11:17:00.001Z,18.15
2022-10-17T11:20:30.502Z,18.07
2022-10-17T11:23:56.525Z,17.98
2022-10-17T11:27:05.129Z,17.98
2022-10-17T11:30:12.110Z,18.01
2022-10-17T11:33:26.831Z,17.91
2022-10-17T11:36:32.992Z,17.92
2022-10-17T11:39:42.378Z,17.96
2022-10-17T11:43:15.742Z,18.03
2022-10-17T11:46:24.998Z,17.90
2022-10-17T11:49:51.561Z,18.12
2022-10-17T11:52:59.250Z,18.13
2022-10-17T11:56:02.952Z,18.10
2022-10-17T11:59:41.990Z,18.10
2022-10-17T12:02:52.170Z,18.10
2022-10-17T12:06:18.233Z,18.12
2022-10-17T12:09:42.606Z,18.12
2022-10-17T12:12:44.744Z,18.05
2022-10-17T12:15:51.338Z,18.05
2022-10-17T12:19:03.046Z,18.11
2022-10-17T12:22:28.864Z,18.12
2022-10-17T12:25:34.723Z,18.11
2022-10-17T12:28:48.175Z,18.08
2022-10-17T12:31:50.878Z,18.07
2022-10-17T12:34:55.654Z,18.12
2022-10-17T12:38:01.917Z,18.14
2022-10-17T12:41:05.216Z,18.09
2022-10-17T12:44:14.969Z,18.16
2022-10-17T12:47:38.326Z,18.14
2022-10-17T12:51:30.720Z,18.15
2022-10-17T12:54:24.483Z,18.13
2022-10-17T12:57:48.482Z,18.14
2022-10-17T13:04:22.155Z,18.13
2022-10-17T13:07:26.377Z,18.15
2022-10-17T13:10:31.729Z,18.11
2022-10-17T13:13:39.338Z,18.04
2022-10-17T13:16:52.205Z,18.15
2022-10-17T13:19:55.455Z,18.11
2022-10-17T13:22:58.650Z,18.07
2022-10-17T13:26:15.874Z,18.13
2022-10-17T13:29:46.522Z,18.13
2022-10-17T13:32:52.167Z,18.07
2022-10-17T13:36:00.508Z,18.07
2022-10-17T13:39:12.526Z,18.14
2022-10-17T13:42:30.366Z,18.12
2022-10-17T13:45:37.101Z,18.07
2022-10-17T13:48:39.594Z,18.06
2022-10-17T13:51:48.217Z,18.11
2022-10-17T13:54:51.697Z,18.13
2022-10-17T13:57:58.368Z,18.10
2022-10-17T14:01:01.171Z,17.99
2022-10-17T14:04:19.496Z,18.08
2022-10-17T14:07:46.132Z,17.98
2022-10-17T14:10:49.352Z,17.98
2022-10-17T14:13:59.110Z,17.90
2022-10-17T14:17:01.415Z,17.89
2022-10-17T14:23:38.467Z,17.91
2022-10-17T14:26:55.789Z,17.88
2022-10-17T14:30:04.220Z,17.85
2022-10-17T14:33:11.163Z,17.85
2022-10-17T14:36:14.557Z,17.74
2022-10-17T14:39:23.502Z,17.83
2022-10-17T14:42:26.268Z,17.76
2022-10-17T14:45:38.826Z,17.80
2022-10-17T14:48:43.296Z,17.77
2022-10-17T14:52:16.789Z,17.77
2022-10-17T14:55:25.606Z,17.74
2022-10-17T14:58:33.615Z,17.72
2022-10-17T15:01:36.132Z,17.61
2022-10-17T15:04:42.328Z,17.62
2022-10-17T15:07:46.962Z,17.34
2022-10-17T15:10:52.082Z,17.51
2022-10-17T15:13:54.675Z,17.56
2022-10-17T15:16:56.861Z,17.59
2022-10-17T15:19:59.295Z,17.73
2022-10-17T15:23:02.407Z,17.88
2022-10-17T15:26:16.172Z,17.98
2022-10-17T15:29:18.766Z,17.95
2022-10-17T15:32:21.152Z,18.15
2022-10-17T15:35:26.542Z,18.09
2022-10-17T15:38:29.397Z,17.93
2022-10-17T15:41:32.816Z,17.81
2022-10-17T15:44:36.963Z,17.81
2022-10-17T15:47:39.312Z,17.74
2022-10-17T15:50:42.154Z,17.64
2022-10-17T15:53:45.798Z,17.71
2022-10-17T15:57:34.144Z,17.65
2022-10-17T16:00:38.583Z,17.55
2022-10-17T16:03:40.662Z,17.39
2022-10-17T16:06:43.309Z,17.37
2022-10-17T16:09:46.274Z,17.33
2022-10-17T16:12:51.411Z,17.22
2022-10-17T16:15:54.028Z,17.22
2022-10-17T16:18:57.724Z,17.12
2022-10-17T16:22:04.331Z,17.01
2022-10-17T16:25:19.644Z,17.05
2022-10-17T16:28:23.081Z,16.89
2022-10-17T16:31:29.483Z,16.93
2022-10-17T16:34:32.954Z,16.80
2022-10-17T16:37:38.193Z,16.77
2022-10-17T16:40:41.453Z,16.70
2022-10-17T16:43:45.517Z,16.60
2022-10-17T16:46:48.485Z,16.49
2022-10-17T16:49:51.338Z,16.49
2022-10-17T16:52:56.248Z,16.55
2022-10-17T16:56:10.209Z,16.28
2022-10-17T16:59:13.004Z,16.37
2022-10-17T17:02:24.707Z,16.37
2022-10-17T17:05:27.816Z,16.27
2022-10-17T17:08:31.745Z,16.33
2022-10-17T17:11:33.835Z,16.33
2022-10-17T17:14:36.089Z,16.33
2022-10-17T17:17:50.313Z,16.38
2022-10-17T17:21:00.193Z,16.24
2022-10-17T17:24:04.564Z,16.37
2022-10-17T17:27:08.793Z,16.18
2022-10-17T17:30:13.935Z,16.18
2022-10-17T17:33:17.890Z,16.06
2022-10-17T17:36:22.557Z,16.12
2022-10-17T17:39:24.551Z,16.04
2022-10-17T17:42:26.874Z,16.10
2022-10-17T17:45:29.449Z,16.06
2022-10-17T17:48:32.736Z,15.96
2022-10-17T17:51:34.893Z,15.95
2022-10-17T17:54:40.072Z,15.77
2022-10-17T17:57:45.817Z,15.72
2022-10-17T18:00:47.938Z,15.73
2022-10-17T18:03:52.647Z,15.69
2022-10-17T18:07:00.815Z,15.78
2022-10-17T18:10:04.438Z,15.81
2022-10-17T18:13:08.024Z,15.78
2022-10-17T18:16:17.119Z,15.77
2022-10-17T18:19:19.417Z,15.63
2022-10-17T18:22:25.385Z,15.63
2022-10-17T18:25:28.523Z,15.66
2022-10-17T18:28:30.857Z,15.65
2022-10-17T18:31:36.181Z,16.13
2022-10-17T18:34:38.414Z,16.24
2022-10-17T18:37:42.776Z,15.80
2022-10-17T18:40:47.318Z,15.72
2022-10-17T18:43:53.525Z,15.58
2022-10-17T18:46:59.856Z,15.59
2022-10-17T18:50:06.706Z,15.41
2022-10-17T18:53:09.716Z,15.46
2022-10-17T18:56:16.455Z,15.49
2022-10-17T18:59:19.387Z,15.34
2022-10-17T19:02:21.503Z,15.32
2022-10-17T19:05:24.757Z,15.36
2022-10-17T19:08:26.832Z,15.29
2022-10-17T19:11:31.968Z,15.18
2022-10-17T19:14:34.297Z,15.07
2022-10-17T19:17:38.328Z,14.97
2022-10-17T19:20:42.966Z,14.95
2022-10-17T19:23:52.997Z,15.03
2022-10-17T19:26:58.748Z,14.92
2022-10-17T19:30:01.839Z,14.88
2022-10-17T19:33:05.773Z,14.92
2022-10-17T19:36:11.411Z,14.95
2022-10-17T19:39:16.442Z,14.93
2022-10-17T19:42:19.101Z,14.91
2022-10-17T19:45:25.577Z,14.64
2022-10-17T19:48:31.529Z,15.00
2022-10-17T19:51:34.281Z,15.03
2022-10-17T19:54:36.307Z,14.88
2022-10-17T19:57:38.543Z,14.74
2022-10-17T20:00:47.482Z,14.70
2022-10-17T20:03:54.749Z,14.75
2022-10-17T20:07:00.112Z,14.67
2022-10-17T20:10:04.705Z,14.67
2022-10-17T20:13:08.611Z,14.78
2022-10-17T20:16:14.028Z,15.00
2022-10-17T20:19:16.414Z,15.00
2022-10-17T20:22:18.808Z,14.95
2022-10-17T20:25:22.643Z,14.95
2022-10-17T20:28:26.888Z,14.95
2022-10-17T20:31:29.390Z,14.92
2022-10-17T20:34:35.705Z,14.86
2022-10-17T20:37:42.375Z,14.73
2022-10-17T20:40:46.314Z,14.93
2022-10-17T20:43:51.971Z,14.52
2022-10-17T20:47:01.697Z,14.96
2022-10-17T20:50:07.642Z,14.66
2022-10-17T20:56:36.576Z,14.79
2022-10-17T20:59:38.662Z,14.79
2022-10-17T21:02:40.956Z,14.79
2022-10-17T21:05:43.376Z,14.73
2022-10-17T21:08:46.697Z,14.69
2022-10-17T21:11:51.906Z,14.65
2022-10-17T21:14:54.684Z,14.66
2022-10-17T21:17:56.764Z,14.65
2022-10-17T21:21:15.130Z,14.46
2022-10-17T21:24:19.613Z,14.37
2022-10-17T21:27:21.664Z,14.25
2022-10-17T21:30:24.393Z,14.21
2022-10-17T21:33:29.417Z,14.11
2022-10-17T21:36:32.301Z,13.90
2022-10-17T21:39:35.839Z,13.86
2022-10-17T21:42:39.185Z,14.03
2022-10-17T21:45:45.553Z,13.87
2022-10-17T21:48:49.164Z,14.01
2022-10-17T21:51:52.623Z,13.99
2022-10-17T21:54:55.957Z,13.94
2022-10-17T21:57:58.162Z,14.11
2022-10-17T22:01:09.348Z,14.09
2022-10-17T22:04:18.436Z,14.13
2022-10-17T22:07:20.613Z,13.86
2022-10-17T22:10:24.171Z,13.78
2022-10-17T22:13:26.663Z,13.87
2022-10-17T22:16:29.215Z,14.01
2022-10-17T22:19:32.405Z,13.96
2022-10-17T22:22:34.464Z,13.87
2022-10-17T22:25:40.454Z,13.87
2022-10-17T22:28:42.537Z,13.88
2022-10-17T22:31:44.953Z,13.74
2022-10-17T22:34:48.341Z,13.79
2022-10-17T22:37:52.936Z,13.68
2022-10-17T22:40:55.301Z,13.65
2022-10-17T22:43:57.582Z,13.74
2022-10-17T22:46:59.709Z,13.75
2022-10-17T22:50:01.818Z,13.64
2022-10-17T22:53:05.206Z,13.81
2022-10-17T22:56:16.647Z,13.84
2022-10-17T22:59:19.324Z,13.75
2022-10-17T23:02:24.150Z,13.73
2022-10-17T23:05:27.390Z,13.75
2022-10-17T23:08:29.628Z,13.81
2022-10-17T23:11:31.870Z,13.53
2022-10-17T23:14:37.658Z,13.67
2022-10-17T23:17:40.864Z,13.57
2022-10-17T23:20:43.428Z,13.61
2022-10-17T23:23:46.916Z,13.54
2022-10-17T23:26:49.245Z,13.49
2022-10-17T23:29:53.535Z,13.45
2022-10-17T23:32:56.762Z,13.40
2022-10-17T23:36:03.523Z,13.41
2022-10-17T23:39:07.307Z,13.44
2022-10-17T23:42:09.501Z,13.21
2022-10-17T23:45:12.752Z,13.38
2022-10-17T23:48:14.908Z,13.58
2022-10-17T23:51:17.179Z,13.46
2022-10-17T23:54:19.623Z,13.57
2022-10-17T23:57:21.747Z,13.61
